sensor_id;sensor_type;location;lat;lon;timestamp;P1;durP1;ratioP1;P2;durP2;ratioP2
8474;SDS011;4274;52.012;8.448;2024-02-26T00:02:24;40.00;;;4.53;;
8474;SDS011;4274;52.012;8.448;2024-02-26T00:04:50;38.07;;;4.00;;
8474;SDS011;4274;52.012;8.448;2024-02-26T00:07:16;39.73;;;3.90;;
8474;SDS011;4274;52.012;8.448;2024-02-26T00:09:41;37.60;;;3.07;;
8474;SDS011;4274;52.012;8.448;2024-02-26T00:12:07;39.30;;;3.60;;
8474;SDS011;4274;52.012;8.448;2024-02-26T00:14:33;37.17;;;3.03;;
8474;SDS011;4274;52.012;8.448;2024-02-26T00:16:58;37.37;;;3.40;;
8474;SDS011;4274;52.012;8.448;2024-02-26T00:19:24;39.50;;;3.87;;
8474;SDS011;4274;52.012;8.448;2024-02-26T00:21:50;38.30;;;3.50;;
8474;SDS011;4274;52.012;8.448;2024-02-26T00:24:15;39.97;;;3.80;;
8474;SDS011;4274;52.012;8.448;2024-02-26T00:26:41;38.07;;;3.30;;
8474;SDS011;4274;52.012;8.448;2024-02-26T00:29:06;37.80;;;3.30;;
8474;SDS011;4274;52.012;8.448;2024-02-26T00:31:32;38.97;;;3.57;;
8474;SDS011;4274;52.012;8.448;2024-02-26T00:33:57;38.47;;;3.37;;
8474;SDS011;4274;52.012;8.448;2024-02-26T00:36:23;40.03;;;3.40;;
8474;SDS011;4274;52.012;8.448;2024-02-26T00:38:49;39.70;;;3.73;;
8474;SDS011;4274;52.012;8.448;2024-02-26T00:41:17;41.77;;;3.87;;
8474;SDS011;4274;52.012;8.448;2024-02-26T00:43:44;39.67;;;3.80;;
8474;SDS011;4274;52.012;8.448;2024-02-26T00:46:09;37.77;;;3.50;;
8474;SDS011;4274;52.012;8.448;2024-02-26T00:48:35;38.50;;;3.90;;
8474;SDS011;4274;52.012;8.448;2024-02-26T00:51:02;40.27;;;3.70;;
8474;SDS011;4274;52.012;8.448;2024-02-26T00:53:30;38.00;;;3.50;;
8474;SDS011;4274;52.012;8.448;2024-02-26T00:55:56;39.67;;;3.57;;
8474;SDS011;4274;52.012;8.448;2024-02-26T00:58:21;38.10;;;3.23;;
8474;SDS011;4274;52.012;8.448;2024-02-26T01:00:47;43.70;;;3.63;;
8474;SDS011;4274;52.012;8.448;2024-02-26T01:03:12;38.80;;;3.47;;
8474;SDS011;4274;52.012;8.448;2024-02-26T01:05:38;38.00;;;3.20;;
8474;SDS011;4274;52.012;8.448;2024-02-26T01:08:04;38.23;;;3.33;;
8474;SDS011;4274;52.012;8.448;2024-02-26T01:10:30;37.83;;;3.30;;
8474;SDS011;4274;52.012;8.448;2024-02-26T01:12:56;38.07;;;3.27;;
8474;SDS011;4274;52.012;8.448;2024-02-26T01:15:21;38.70;;;3.40;;
8474;SDS011;4274;52.012;8.448;2024-02-26T01:17:49;38.70;;;3.87;;
8474;SDS011;4274;52.012;8.448;2024-02-26T01:20:15;40.73;;;3.53;;
8474;SDS011;4274;52.012;8.448;2024-02-26T01:22:42;37.70;;;3.40;;
8474;SDS011;4274;52.012;8.448;2024-02-26T01:25:08;38.70;;;3.43;;
8474;SDS011;4274;52.012;8.448;2024-02-26T01:27:34;39.63;;;4.07;;
8474;SDS011;4274;52.012;8.448;2024-02-26T01:30:01;38.47;;;4.10;;
8474;SDS011;4274;52.012;8.448;2024-02-26T01:32:31;39.13;;;4.03;;
8474;SDS011;4274;52.012;8.448;2024-02-26T01:34:57;38.80;;;4.27;;
8474;SDS011;4274;52.012;8.448;2024-02-26T01:37:22;44.53;;;4.63;;
8474;SDS011;4274;52.012;8.448;2024-02-26T01:39:48;41.80;;;4.57;;
8474;SDS011;4274;52.012;8.448;2024-02-26T01:42:14;39.80;;;4.80;;
8474;SDS011;4274;52.012;8.448;2024-02-26T01:44:39;39.63;;;4.37;;
8474;SDS011;4274;52.012;8.448;2024-02-26T01:47:05;39.03;;;4.30;;
8474;SDS011;4274;52.012;8.448;2024-02-26T01:49:35;41.27;;;4.20;;
8474;SDS011;4274;52.012;8.448;2024-02-26T01:52:01;41.97;;;5.20;;
8474;SDS011;4274;52.012;8.448;2024-02-26T01:54:29;40.37;;;4.57;;
8474;SDS011;4274;52.012;8.448;2024-02-26T01:56:55;42.70;;;4.27;;
8474;SDS011;4274;52.012;8.448;2024-02-26T01:59:22;39.50;;;4.67;;
8474;SDS011;4274;52.012;8.448;2024-02-26T02:01:48;39.87;;;4.30;;
8474;SDS011;4274;52.012;8.448;2024-02-26T02:04:19;40.27;;;4.90;;
8474;SDS011;4274;52.012;8.448;2024-02-26T02:06:45;42.87;;;5.03;;
8474;SDS011;4274;52.012;8.448;2024-02-26T02:09:12;40.60;;;4.60;;
8474;SDS011;4274;52.012;8.448;2024-02-26T02:11:37;41.90;;;5.37;;
8474;SDS011;4274;52.012;8.448;2024-02-26T02:14:03;41.77;;;5.00;;
8474;SDS011;4274;52.012;8.448;2024-02-26T02:16:29;40.77;;;5.50;;
8474;SDS011;4274;52.012;8.448;2024-02-26T02:18:54;41.30;;;5.40;;
8474;SDS011;4274;52.012;8.448;2024-02-26T02:21:20;41.67;;;5.90;;
8474;SDS011;4274;52.012;8.448;2024-02-26T02:23:45;42.70;;;6.47;;
8474;SDS011;4274;52.012;8.448;2024-02-26T02:26:12;43.93;;;6.53;;
8474;SDS011;4274;52.012;8.448;2024-02-26T02:28:39;41.13;;;5.17;;
8474;SDS011;4274;52.012;8.448;2024-02-26T02:31:05;40.10;;;5.00;;
8474;SDS011;4274;52.012;8.448;2024-02-26T02:33:31;39.27;;;4.80;;
8474;SDS011;4274;52.012;8.448;2024-02-26T02:35:57;41.17;;;4.93;;
8474;SDS011;4274;52.012;8.448;2024-02-26T02:38:23;44.00;;;4.73;;
8474;SDS011;4274;52.012;8.448;2024-02-26T02:40:51;38.57;;;4.50;;
8474;SDS011;4274;52.012;8.448;2024-02-26T02:43:16;39.30;;;4.53;;
8474;SDS011;4274;52.012;8.448;2024-02-26T02:45:42;39.57;;;4.87;;
8474;SDS011;4274;52.012;8.448;2024-02-26T02:48:08;39.10;;;4.40;;
8474;SDS011;4274;52.012;8.448;2024-02-26T02:50:33;38.77;;;4.40;;
8474;SDS011;4274;52.012;8.448;2024-02-26T02:52:59;39.17;;;4.40;;
8474;SDS011;4274;52.012;8.448;2024-02-26T02:55:24;38.33;;;3.80;;
8474;SDS011;4274;52.012;8.448;2024-02-26T02:57:50;39.80;;;3.97;;
8474;SDS011;4274;52.012;8.448;2024-02-26T03:00:16;39.10;;;3.60;;
8474;SDS011;4274;52.012;8.448;2024-02-26T03:02:42;38.37;;;3.70;;
8474;SDS011;4274;52.012;8.448;2024-02-26T03:05:09;41.37;;;4.60;;
8474;SDS011;4274;52.012;8.448;2024-02-26T03:07:35;38.70;;;3.80;;
8474;SDS011;4274;52.012;8.448;2024-02-26T03:10:01;38.37;;;3.57;;
8474;SDS011;4274;52.012;8.448;2024-02-26T03:12:27;39.10;;;3.90;;
8474;SDS011;4274;52.012;8.448;2024-02-26T03:14:53;39.60;;;4.30;;
8474;SDS011;4274;52.012;8.448;2024-02-26T03:17:19;39.13;;;4.10;;
8474;SDS011;4274;52.012;8.448;2024-02-26T03:19:46;38.63;;;4.10;;
8474;SDS011;4274;52.012;8.448;2024-02-26T03:22:12;38.53;;;4.07;;
8474;SDS011;4274;52.012;8.448;2024-02-26T03:24:38;42.40;;;4.60;;
8474;SDS011;4274;52.012;8.448;2024-02-26T03:27:04;39.60;;;4.33;;
8474;SDS011;4274;52.012;8.448;2024-02-26T03:29:34;38.47;;;4.00;;
8474;SDS011;4274;52.012;8.448;2024-02-26T03:32:03;44.83;;;4.90;;
8474;SDS011;4274;52.012;8.448;2024-02-26T03:34:29;38.37;;;4.13;;
8474;SDS011;4274;52.012;8.448;2024-02-26T03:36:56;40.20;;;4.50;;
8474;SDS011;4274;52.012;8.448;2024-02-26T03:39:21;39.40;;;4.00;;
8474;SDS011;4274;52.012;8.448;2024-02-26T03:41:47;38.50;;;4.23;;
8474;SDS011;4274;52.012;8.448;2024-02-26T03:44:13;38.40;;;3.50;;
8474;SDS011;4274;52.012;8.448;2024-02-26T03:46:42;38.20;;;3.63;;
8474;SDS011;4274;52.012;8.448;2024-02-26T03:49:08;39.90;;;3.80;;
8474;SDS011;4274;52.012;8.448;2024-02-26T03:51:34;38.47;;;3.80;;
8474;SDS011;4274;52.012;8.448;2024-02-26T03:54:00;38.80;;;4.03;;
8474;SDS011;4274;52.012;8.448;2024-02-26T03:56:26;37.83;;;3.73;;
8474;SDS011;4274;52.012;8.448;2024-02-26T03:58:52;37.93;;;4.00;;
8474;SDS011;4274;52.012;8.448;2024-02-26T04:01:18;39.00;;;4.00;;
8474;SDS011;4274;52.012;8.448;2024-02-26T04:03:43;38.87;;;3.83;;
8474;SDS011;4274;52.012;8.448;2024-02-26T04:06:09;39.20;;;3.83;;
8474;SDS011;4274;52.012;8.448;2024-02-26T04:08:35;37.60;;;3.40;;
8474;SDS011;4274;52.012;8.448;2024-02-26T04:11:01;39.30;;;3.70;;
8474;SDS011;4274;52.012;8.448;2024-02-26T04:13:32;38.37;;;3.27;;
8474;SDS011;4274;52.012;8.448;2024-02-26T04:16:00;38.47;;;3.50;;
8474;SDS011;4274;52.012;8.448;2024-02-26T04:18:28;39.70;;;3.77;;
8474;SDS011;4274;52.012;8.448;2024-02-26T04:20:54;37.67;;;3.53;;
8474;SDS011;4274;52.012;8.448;2024-02-26T04:23:19;37.50;;;3.53;;
8474;SDS011;4274;52.012;8.448;2024-02-26T04:25:45;38.03;;;3.93;;
8474;SDS011;4274;52.012;8.448;2024-02-26T04:28:11;38.53;;;4.30;;
8474;SDS011;4274;52.012;8.448;2024-02-26T04:30:37;39.53;;;4.17;;
8474;SDS011;4274;52.012;8.448;2024-02-26T04:33:03;39.20;;;4.07;;
8474;SDS011;4274;52.012;8.448;2024-02-26T04:35:28;39.13;;;4.60;;
8474;SDS011;4274;52.012;8.448;2024-02-26T04:37:54;40.07;;;4.23;;
8474;SDS011;4274;52.012;8.448;2024-02-26T04:40:20;43.00;;;4.60;;
8474;SDS011;4274;52.012;8.448;2024-02-26T04:42:45;41.00;;;4.30;;
8474;SDS011;4274;52.012;8.448;2024-02-26T04:45:11;39.30;;;4.13;;
8474;SDS011;4274;52.012;8.448;2024-02-26T04:47:36;41.37;;;3.77;;
8474;SDS011;4274;52.012;8.448;2024-02-26T04:50:02;39.37;;;4.10;;
8474;SDS011;4274;52.012;8.448;2024-02-26T04:52:28;39.57;;;3.70;;
8474;SDS011;4274;52.012;8.448;2024-02-26T04:54:53;38.90;;;3.80;;
8474;SDS011;4274;52.012;8.448;2024-02-26T04:57:19;38.63;;;3.80;;
8474;SDS011;4274;52.012;8.448;2024-02-26T04:59:46;37.93;;;3.50;;
8474;SDS011;4274;52.012;8.448;2024-02-26T05:02:12;38.53;;;3.97;;
8474;SDS011;4274;52.012;8.448;2024-02-26T05:04:37;38.87;;;3.77;;
8474;SDS011;4274;52.012;8.448;2024-02-26T05:07:03;38.77;;;4.30;;
8474;SDS011;4274;52.012;8.448;2024-02-26T05:09:29;38.67;;;4.20;;
8474;SDS011;4274;52.012;8.448;2024-02-26T05:11:54;39.50;;;4.20;;
8474;SDS011;4274;52.012;8.448;2024-02-26T05:14:20;39.20;;;4.50;;
8474;SDS011;4274;52.012;8.448;2024-02-26T05:16:46;37.80;;;3.60;;
8474;SDS011;4274;52.012;8.448;2024-02-26T05:19:12;38.87;;;4.30;;
8474;SDS011;4274;52.012;8.448;2024-02-26T05:21:38;38.90;;;3.87;;
8474;SDS011;4274;52.012;8.448;2024-02-26T05:24:04;38.30;;;4.33;;
8474;SDS011;4274;52.012;8.448;2024-02-26T05:26:31;38.80;;;3.90;;
8474;SDS011;4274;52.012;8.448;2024-02-26T05:28:56;38.83;;;3.53;;
8474;SDS011;4274;52.012;8.448;2024-02-26T05:31:25;39.73;;;4.17;;
8474;SDS011;4274;52.012;8.448;2024-02-26T05:33:51;38.80;;;4.10;;
8474;SDS011;4274;52.012;8.448;2024-02-26T05:36:20;38.50;;;3.87;;
8474;SDS011;4274;52.012;8.448;2024-02-26T05:38:47;38.57;;;3.77;;
8474;SDS011;4274;52.012;8.448;2024-02-26T05:41:16;40.47;;;3.93;;
8474;SDS011;4274;52.012;8.448;2024-02-26T05:43:47;37.87;;;3.70;;
8474;SDS011;4274;52.012;8.448;2024-02-26T05:46:17;40.00;;;4.43;;
8474;SDS011;4274;52.012;8.448;2024-02-26T05:48:43;38.27;;;3.60;;
8474;SDS011;4274;52.012;8.448;2024-02-26T05:51:12;38.40;;;3.97;;
8474;SDS011;4274;52.012;8.448;2024-02-26T05:53:38;40.00;;;4.00;;
8474;SDS011;4274;52.012;8.448;2024-02-26T05:56:03;38.33;;;4.10;;
8474;SDS011;4274;52.012;8.448;2024-02-26T05:58:29;39.30;;;3.60;;
8474;SDS011;4274;52.012;8.448;2024-02-26T06:00:54;38.90;;;4.00;;
8474;SDS011;4274;52.012;8.448;2024-02-26T06:03:20;38.40;;;3.83;;
8474;SDS011;4274;52.012;8.448;2024-02-26T06:05:46;38.50;;;3.53;;
8474;SDS011;4274;52.012;8.448;2024-02-26T06:08:11;38.67;;;3.60;;
8474;SDS011;4274;52.012;8.448;2024-02-26T06:10:37;37.97;;;3.40;;
8474;SDS011;4274;52.012;8.448;2024-02-26T06:13:04;37.40;;;3.43;;
8474;SDS011;4274;52.012;8.448;2024-02-26T06:15:29;39.93;;;4.10;;
8474;SDS011;4274;52.012;8.448;2024-02-26T06:17:55;38.80;;;3.63;;
8474;SDS011;4274;52.012;8.448;2024-02-26T06:20:20;38.30;;;4.03;;
8474;SDS011;4274;52.012;8.448;2024-02-26T06:22:46;38.97;;;4.10;;
8474;SDS011;4274;52.012;8.448;2024-02-26T06:25:12;37.90;;;3.90;;
8474;SDS011;4274;52.012;8.448;2024-02-26T06:27:37;38.00;;;3.83;;
8474;SDS011;4274;52.012;8.448;2024-02-26T06:30:03;38.43;;;3.93;;
8474;SDS011;4274;52.012;8.448;2024-02-26T06:32:29;40.80;;;3.90;;
8474;SDS011;4274;52.012;8.448;2024-02-26T06:34:55;39.17;;;4.20;;
8474;SDS011;4274;52.012;8.448;2024-02-26T06:37:21;38.33;;;4.00;;
8474;SDS011;4274;52.012;8.448;2024-02-26T06:39:46;39.07;;;4.33;;
8474;SDS011;4274;52.012;8.448;2024-02-26T06:42:12;39.37;;;3.93;;
8474;SDS011;4274;52.012;8.448;2024-02-26T06:44:38;38.47;;;3.80;;
8474;SDS011;4274;52.012;8.448;2024-02-26T06:47:03;39.97;;;4.40;;
8474;SDS011;4274;52.012;8.448;2024-02-26T06:49:29;39.60;;;4.50;;
8474;SDS011;4274;52.012;8.448;2024-02-26T06:51:55;39.50;;;4.50;;
8474;SDS011;4274;52.012;8.448;2024-02-26T06:54:20;38.37;;;4.00;;
8474;SDS011;4274;52.012;8.448;2024-02-26T06:56:46;40.60;;;4.50;;
8474;SDS011;4274;52.012;8.448;2024-02-26T06:59:12;38.37;;;4.17;;
8474;SDS011;4274;52.012;8.448;2024-02-26T07:01:39;38.37;;;3.90;;
8474;SDS011;4274;52.012;8.448;2024-02-26T07:04:06;39.37;;;4.07;;
8474;SDS011;4274;52.012;8.448;2024-02-26T07:06:31;39.03;;;4.40;;
8474;SDS011;4274;52.012;8.448;2024-02-26T07:08:57;39.20;;;4.17;;
8474;SDS011;4274;52.012;8.448;2024-02-26T07:11:23;40.20;;;3.80;;
8474;SDS011;4274;52.012;8.448;2024-02-26T07:13:48;38.90;;;3.90;;
8474;SDS011;4274;52.012;8.448;2024-02-26T07:16:14;41.03;;;4.80;;
8474;SDS011;4274;52.012;8.448;2024-02-26T07:18:40;39.60;;;4.80;;
8474;SDS011;4274;52.012;8.448;2024-02-26T07:21:06;40.60;;;4.37;;
8474;SDS011;4274;52.012;8.448;2024-02-26T07:23:32;39.20;;;4.50;;
8474;SDS011;4274;52.012;8.448;2024-02-26T07:25:57;42.13;;;4.60;;
8474;SDS011;4274;52.012;8.448;2024-02-26T07:28:24;39.80;;;4.37;;
8474;SDS011;4274;52.012;8.448;2024-02-26T07:30:49;40.37;;;5.07;;
8474;SDS011;4274;52.012;8.448;2024-02-26T07:33:15;43.30;;;4.53;;
8474;SDS011;4274;52.012;8.448;2024-02-26T07:35:41;40.20;;;4.70;;
8474;SDS011;4274;52.012;8.448;2024-02-26T07:38:06;39.57;;;4.37;;
8474;SDS011;4274;52.012;8.448;2024-02-26T07:40:32;39.70;;;4.90;;
8474;SDS011;4274;52.012;8.448;2024-02-26T07:42:57;40.90;;;4.63;;
8474;SDS011;4274;52.012;8.448;2024-02-26T07:45:23;40.27;;;4.60;;
8474;SDS011;4274;52.012;8.448;2024-02-26T07:47:49;40.50;;;4.70;;
8474;SDS011;4274;52.012;8.448;2024-02-26T07:50:16;42.20;;;5.40;;
8474;SDS011;4274;52.012;8.448;2024-02-26T07:52:41;43.93;;;5.80;;
8474;SDS011;4274;52.012;8.448;2024-02-26T07:55:07;40.40;;;5.10;;
8474;SDS011;4274;52.012;8.448;2024-02-26T07:57:33;39.60;;;4.97;;
8474;SDS011;4274;52.012;8.448;2024-02-26T07:59:59;44.50;;;5.17;;
8474;SDS011;4274;52.012;8.448;2024-02-26T08:02:24;42.87;;;5.40;;
8474;SDS011;4274;52.012;8.448;2024-02-26T08:04:50;44.20;;;7.90;;
8474;SDS011;4274;52.012;8.448;2024-02-26T08:07:16;43.00;;;5.70;;
8474;SDS011;4274;52.012;8.448;2024-02-26T08:09:42;41.80;;;6.10;;
8474;SDS011;4274;52.012;8.448;2024-02-26T08:12:07;43.17;;;6.00;;
8474;SDS011;4274;52.012;8.448;2024-02-26T08:14:33;43.30;;;6.70;;
8474;SDS011;4274;52.012;8.448;2024-02-26T08:16:58;43.53;;;6.20;;
8474;SDS011;4274;52.012;8.448;2024-02-26T08:19:24;45.93;;;7.30;;
8474;SDS011;4274;52.012;8.448;2024-02-26T08:21:51;42.87;;;5.83;;
8474;SDS011;4274;52.012;8.448;2024-02-26T08:24:17;44.90;;;6.70;;
8474;SDS011;4274;52.012;8.448;2024-02-26T08:26:42;47.03;;;6.80;;
8474;SDS011;4274;52.012;8.448;2024-02-26T08:29:08;44.57;;;6.63;;
8474;SDS011;4274;52.012;8.448;2024-02-26T08:31:33;43.93;;;6.70;;
8474;SDS011;4274;52.012;8.448;2024-02-26T08:34:02;46.00;;;6.33;;
8474;SDS011;4274;52.012;8.448;2024-02-26T08:36:28;42.40;;;6.10;;
8474;SDS011;4274;52.012;8.448;2024-02-26T08:38:53;45.23;;;7.57;;
8474;SDS011;4274;52.012;8.448;2024-02-26T08:41:19;43.37;;;6.80;;
8474;SDS011;4274;52.012;8.448;2024-02-26T08:43:45;41.97;;;5.70;;
8474;SDS011;4274;52.012;8.448;2024-02-26T08:46:12;45.07;;;6.80;;
8474;SDS011;4274;52.012;8.448;2024-02-26T08:48:38;43.27;;;5.80;;
8474;SDS011;4274;52.012;8.448;2024-02-26T08:51:05;44.70;;;6.47;;
8474;SDS011;4274;52.012;8.448;2024-02-26T08:53:34;44.20;;;6.00;;
8474;SDS011;4274;52.012;8.448;2024-02-26T08:56:00;43.33;;;6.03;;
8474;SDS011;4274;52.012;8.448;2024-02-26T08:58:29;44.60;;;6.60;;
8474;SDS011;4274;52.012;8.448;2024-02-26T09:00:55;45.23;;;7.10;;
8474;SDS011;4274;52.012;8.448;2024-02-26T09:03:21;42.53;;;6.23;;
8474;SDS011;4274;52.012;8.448;2024-02-26T09:05:47;44.17;;;6.10;;
8474;SDS011;4274;52.012;8.448;2024-02-26T09:08:12;45.50;;;7.43;;
8474;SDS011;4274;52.012;8.448;2024-02-26T09:10:38;46.57;;;7.73;;
8474;SDS011;4274;52.012;8.448;2024-02-26T09:13:04;45.53;;;7.10;;
8474;SDS011;4274;52.012;8.448;2024-02-26T09:15:30;48.00;;;7.40;;
8474;SDS011;4274;52.012;8.448;2024-02-26T09:17:55;43.50;;;6.60;;
8474;SDS011;4274;52.012;8.448;2024-02-26T09:20:21;48.10;;;7.50;;
8474;SDS011;4274;52.012;8.448;2024-02-26T09:22:48;46.13;;;7.23;;
8474;SDS011;4274;52.012;8.448;2024-02-26T09:25:14;44.40;;;7.33;;
8474;SDS011;4274;52.012;8.448;2024-02-26T09:27:43;42.93;;;6.20;;
8474;SDS011;4274;52.012;8.448;2024-02-26T09:30:12;45.90;;;7.40;;
8474;SDS011;4274;52.012;8.448;2024-02-26T09:32:38;44.97;;;6.73;;
8474;SDS011;4274;52.012;8.448;2024-02-26T09:35:04;44.30;;;6.73;;
8474;SDS011;4274;52.012;8.448;2024-02-26T09:37:33;45.00;;;6.83;;
8474;SDS011;4274;52.012;8.448;2024-02-26T09:39:59;43.10;;;6.40;;
8474;SDS011;4274;52.012;8.448;2024-02-26T09:42:25;44.30;;;7.10;;
8474;SDS011;4274;52.012;8.448;2024-02-26T09:44:55;42.97;;;6.00;;
8474;SDS011;4274;52.012;8.448;2024-02-26T09:47:24;44.10;;;7.20;;
8474;SDS011;4274;52.012;8.448;2024-02-26T09:49:52;52.03;;;8.60;;
8474;SDS011;4274;52.012;8.448;2024-02-26T09:52:19;45.57;;;7.00;;
8474;SDS011;4274;52.012;8.448;2024-02-26T09:54:49;47.13;;;7.07;;
8474;SDS011;4274;52.012;8.448;2024-02-26T09:57:15;45.83;;;7.60;;
8474;SDS011;4274;52.012;8.448;2024-02-26T09:59:42;46.83;;;6.00;;
8474;SDS011;4274;52.012;8.448;2024-02-26T10:02:09;45.20;;;5.97;;
8474;SDS011;4274;52.012;8.448;2024-02-26T10:04:37;43.13;;;6.60;;
8474;SDS011;4274;52.012;8.448;2024-02-26T10:07:10;45.10;;;6.03;;
8474;SDS011;4274;52.012;8.448;2024-02-26T10:09:36;42.97;;;5.70;;
8474;SDS011;4274;52.012;8.448;2024-02-26T10:12:03;42.70;;;5.50;;
8474;SDS011;4274;52.012;8.448;2024-02-26T10:14:32;43.37;;;5.73;;
8474;SDS011;4274;52.012;8.448;2024-02-26T10:16:58;44.17;;;5.70;;
8474;SDS011;4274;52.012;8.448;2024-02-26T10:19:29;42.17;;;5.30;;
8474;SDS011;4274;52.012;8.448;2024-02-26T10:21:58;44.37;;;6.10;;
8474;SDS011;4274;52.012;8.448;2024-02-26T10:24:25;42.27;;;5.50;;
8474;SDS011;4274;52.012;8.448;2024-02-26T10:26:52;46.77;;;6.43;;
8474;SDS011;4274;52.012;8.448;2024-02-26T10:29:19;42.73;;;5.67;;
8474;SDS011;4274;52.012;8.448;2024-02-26T10:31:45;42.37;;;5.10;;
8474;SDS011;4274;52.012;8.448;2024-02-26T10:34:10;42.23;;;5.60;;
8474;SDS011;4274;52.012;8.448;2024-02-26T10:36:36;44.03;;;5.20;;
8474;SDS011;4274;52.012;8.448;2024-02-26T10:39:03;45.90;;;5.00;;
8474;SDS011;4274;52.012;8.448;2024-02-26T10:41:30;44.20;;;5.70;;
8474;SDS011;4274;52.012;8.448;2024-02-26T10:43:57;43.10;;;5.03;;
8474;SDS011;4274;52.012;8.448;2024-02-26T10:46:23;47.23;;;5.07;;
8474;SDS011;4274;52.012;8.448;2024-02-26T10:48:50;42.77;;;5.20;;
8474;SDS011;4274;52.012;8.448;2024-02-26T10:51:18;45.33;;;5.57;;
8474;SDS011;4274;52.012;8.448;2024-02-26T10:53:47;44.07;;;5.60;;
8474;SDS011;4274;52.012;8.448;2024-02-26T10:56:18;43.80;;;5.13;;
8474;SDS011;4274;52.012;8.448;2024-02-26T10:58:45;45.87;;;4.97;;
8474;SDS011;4274;52.012;8.448;2024-02-26T11:01:11;42.60;;;4.97;;
8474;SDS011;4274;52.012;8.448;2024-02-26T11:03:37;44.63;;;5.20;;
8474;SDS011;4274;52.012;8.448;2024-02-26T11:06:04;43.27;;;5.10;;
8474;SDS011;4274;52.012;8.448;2024-02-26T11:08:30;46.50;;;4.90;;
8474;SDS011;4274;52.012;8.448;2024-02-26T11:10:57;43.93;;;5.60;;
8474;SDS011;4274;52.012;8.448;2024-02-26T11:13:26;43.27;;;5.00;;
8474;SDS011;4274;52.012;8.448;2024-02-26T11:15:55;41.67;;;4.60;;
8474;SDS011;4274;52.012;8.448;2024-02-26T11:18:22;41.93;;;4.97;;
8474;SDS011;4274;52.012;8.448;2024-02-26T11:20:51;43.47;;;6.27;;
8474;SDS011;4274;52.012;8.448;2024-02-26T11:23:21;42.77;;;5.13;;
8474;SDS011;4274;52.012;8.448;2024-02-26T11:25:47;43.57;;;5.17;;
8474;SDS011;4274;52.012;8.448;2024-02-26T11:28:14;42.20;;;5.03;;
8474;SDS011;4274;52.012;8.448;2024-02-26T11:30:43;42.53;;;5.23;;
8474;SDS011;4274;52.012;8.448;2024-02-26T11:33:11;43.60;;;4.93;;
8474;SDS011;4274;52.012;8.448;2024-02-26T11:35:39;43.60;;;5.00;;
8474;SDS011;4274;52.012;8.448;2024-02-26T11:38:04;45.50;;;5.50;;
8474;SDS011;4274;52.012;8.448;2024-02-26T11:40:31;44.00;;;5.80;;
8474;SDS011;4274;52.012;8.448;2024-02-26T11:42:58;42.10;;;4.93;;
8474;SDS011;4274;52.012;8.448;2024-02-26T11:45:47;43.03;;;5.20;;
8474;SDS011;4274;52.012;8.448;2024-02-26T11:48:15;41.97;;;4.83;;
8474;SDS011;4274;52.012;8.448;2024-02-26T11:50:48;43.97;;;5.10;;
8474;SDS011;4274;52.012;8.448;2024-02-26T11:53:20;45.47;;;6.00;;
8474;SDS011;4274;52.012;8.448;2024-02-26T11:56:09;45.60;;;6.03;;
8474;SDS011;4274;52.012;8.448;2024-02-26T11:58:46;44.73;;;5.77;;
8474;SDS011;4274;52.012;8.448;2024-02-26T12:04:12;44.53;;;5.57;;
8474;SDS011;4274;52.012;8.448;2024-02-26T12:07:01;43.93;;;5.90;;
8474;SDS011;4274;52.012;8.448;2024-02-26T12:12:02;47.50;;;7.20;;
8474;SDS011;4274;52.012;8.448;2024-02-26T12:14:37;47.27;;;6.80;;
8474;SDS011;4274;52.012;8.448;2024-02-26T12:17:23;46.07;;;6.20;;
8474;SDS011;4274;52.012;8.448;2024-02-26T12:19:50;45.63;;;5.47;;
8474;SDS011;4274;52.012;8.448;2024-02-26T12:22:16;50.70;;;6.17;;
8474;SDS011;4274;52.012;8.448;2024-02-26T12:24:42;44.20;;;5.93;;
8474;SDS011;4274;52.012;8.448;2024-02-26T12:27:08;44.23;;;5.70;;
8474;SDS011;4274;52.012;8.448;2024-02-26T12:29:34;44.13;;;6.00;;
8474;SDS011;4274;52.012;8.448;2024-02-26T12:32:00;43.63;;;5.40;;
8474;SDS011;4274;52.012;8.448;2024-02-26T12:34:26;43.90;;;5.70;;
8474;SDS011;4274;52.012;8.448;2024-02-26T12:36:53;44.97;;;5.63;;
8474;SDS011;4274;52.012;8.448;2024-02-26T12:39:19;44.00;;;5.40;;
8474;SDS011;4274;52.012;8.448;2024-02-26T12:41:45;46.23;;;6.03;;
8474;SDS011;4274;52.012;8.448;2024-02-26T12:44:15;44.30;;;5.13;;
8474;SDS011;4274;52.012;8.448;2024-02-26T12:46:49;42.87;;;5.57;;
8474;SDS011;4274;52.012;8.448;2024-02-26T12:49:15;42.50;;;5.23;;
8474;SDS011;4274;52.012;8.448;2024-02-26T12:51:43;42.50;;;5.00;;
8474;SDS011;4274;52.012;8.448;2024-02-26T12:54:09;44.30;;;5.07;;
8474;SDS011;4274;52.012;8.448;2024-02-26T12:56:35;41.97;;;4.63;;
8474;SDS011;4274;52.012;8.448;2024-02-26T12:59:00;42.40;;;5.47;;
8474;SDS011;4274;52.012;8.448;2024-02-26T13:01:28;43.43;;;4.30;;
8474;SDS011;4274;52.012;8.448;2024-02-26T13:03:54;42.63;;;4.50;;
8474;SDS011;4274;52.012;8.448;2024-02-26T13:06:20;42.10;;;4.63;;
8474;SDS011;4274;52.012;8.448;2024-02-26T13:08:47;44.07;;;4.57;;
8474;SDS011;4274;52.012;8.448;2024-02-26T13:11:12;41.07;;;4.13;;
8474;SDS011;4274;52.012;8.448;2024-02-26T13:13:38;41.90;;;4.27;;
8474;SDS011;4274;52.012;8.448;2024-02-26T13:16:05;40.40;;;4.23;;
8474;SDS011;4274;52.012;8.448;2024-02-26T13:18:33;41.17;;;4.00;;
8474;SDS011;4274;52.012;8.448;2024-02-26T13:21:06;41.30;;;4.37;;
8474;SDS011;4274;52.012;8.448;2024-02-26T13:23:39;43.37;;;4.50;;
8474;SDS011;4274;52.012;8.448;2024-02-26T13:26:05;41.77;;;4.80;;
8474;SDS011;4274;52.012;8.448;2024-02-26T13:28:31;42.83;;;4.37;;
8474;SDS011;4274;52.012;8.448;2024-02-26T13:30:57;42.73;;;4.70;;
8474;SDS011;4274;52.012;8.448;2024-02-26T13:33:24;43.50;;;4.97;;
8474;SDS011;4274;52.012;8.448;2024-02-26T13:35:51;47.40;;;5.07;;
8474;SDS011;4274;52.012;8.448;2024-02-26T13:38:17;41.73;;;4.90;;
8474;SDS011;4274;52.012;8.448;2024-02-26T13:40:43;41.83;;;4.70;;
8474;SDS011;4274;52.012;8.448;2024-02-26T13:43:09;42.50;;;4.70;;
8474;SDS011;4274;52.012;8.448;2024-02-26T13:45:35;44.40;;;4.00;;
8474;SDS011;4274;52.012;8.448;2024-02-26T13:48:03;40.70;;;3.97;;
8474;SDS011;4274;52.012;8.448;2024-02-26T13:50:30;41.30;;;4.50;;
8474;SDS011;4274;52.012;8.448;2024-02-26T13:52:55;41.20;;;4.10;;
8474;SDS011;4274;52.012;8.448;2024-02-26T13:55:27;42.20;;;4.80;;
8474;SDS011;4274;52.012;8.448;2024-02-26T13:57:55;41.40;;;4.40;;
8474;SDS011;4274;52.012;8.448;2024-02-26T14:00:21;39.77;;;3.43;;
8474;SDS011;4274;52.012;8.448;2024-02-26T14:02:48;40.37;;;3.83;;
8474;SDS011;4274;52.012;8.448;2024-02-26T14:05:13;40.83;;;4.20;;
8474;SDS011;4274;52.012;8.448;2024-02-26T14:07:39;41.67;;;4.30;;
8474;SDS011;4274;52.012;8.448;2024-02-26T14:10:06;41.20;;;4.70;;
8474;SDS011;4274;52.012;8.448;2024-02-26T14:12:32;41.27;;;4.10;;
8474;SDS011;4274;52.012;8.448;2024-02-26T14:14:57;40.93;;;4.37;;
8474;SDS011;4274;52.012;8.448;2024-02-26T14:17:25;40.47;;;4.03;;
8474;SDS011;4274;52.012;8.448;2024-02-26T14:19:51;41.40;;;4.07;;
8474;SDS011;4274;52.012;8.448;2024-02-26T14:22:17;40.33;;;4.20;;
8474;SDS011;4274;52.012;8.448;2024-02-26T14:24:42;40.73;;;4.13;;
8474;SDS011;4274;52.012;8.448;2024-02-26T14:27:08;41.07;;;4.40;;
8474;SDS011;4274;52.012;8.448;2024-02-26T14:29:36;43.63;;;5.53;;
8474;SDS011;4274;52.012;8.448;2024-02-26T14:32:03;42.67;;;5.10;;
8474;SDS011;4274;52.012;8.448;2024-02-26T14:34:28;41.70;;;4.23;;
8474;SDS011;4274;52.012;8.448;2024-02-26T14:36:54;42.27;;;5.90;;
8474;SDS011;4274;52.012;8.448;2024-02-26T14:39:20;41.90;;;4.77;;
8474;SDS011;4274;52.012;8.448;2024-02-26T14:41:46;45.10;;;4.50;;
8474;SDS011;4274;52.012;8.448;2024-02-26T14:44:12;41.57;;;4.40;;
8474;SDS011;4274;52.012;8.448;2024-02-26T14:46:38;41.50;;;4.70;;
8474;SDS011;4274;52.012;8.448;2024-02-26T14:49:03;40.77;;;4.10;;
8474;SDS011;4274;52.012;8.448;2024-02-26T14:51:29;40.27;;;4.03;;
8474;SDS011;4274;52.012;8.448;2024-02-26T14:53:54;41.47;;;4.60;;
8474;SDS011;4274;52.012;8.448;2024-02-26T14:56:20;40.57;;;4.13;;
8474;SDS011;4274;52.012;8.448;2024-02-26T14:58:45;40.40;;;3.80;;
8474;SDS011;4274;52.012;8.448;2024-02-26T15:01:11;43.20;;;4.70;;
8474;SDS011;4274;52.012;8.448;2024-02-26T15:03:37;41.43;;;4.07;;